Barnett Township, Illinois
Current Conditions -  °F | °C
As of 8:55 AM on Monday 24 Nov 2014 (Local Time) from KAAA Reporting Station
Overcast Overcast  
Wind Chill: -3°   Ceiling: 1200
Heat Index:   Visibility: 10mi
Dew Point:   Wind: 13mph
Humidity: 92%   Direction: 260°W
Pressure: 29.45"   Gusts: 26mph
Location:  40.143°N, 88.9637°W
Report Text: KAAA 241455Z AUTO 26011G23KT 210V280 10SM OVC012 02/01 A2945 RMK AO2 P0003 60005 T00160005
Loading
Personal Weather Stations






























Interactive Weather Map New forecast layout! Learn more

10-Day Weather Forecast

Advertisements
Track Severe Weather on mobile